createdAt,value
2023-05-07T00:01:42.878Z,668.38
2023-05-07T00:04:12.779Z,671.83
2023-05-07T00:06:41.818Z,648.22
2023-05-07T00:09:10.283Z,666.15
2023-05-07T00:11:38.878Z,642.20
2023-05-07T00:14:07.293Z,642.50
2023-05-07T00:16:35.733Z,655.08
2023-05-07T00:19:04.172Z,659.13
2023-05-07T00:21:34.025Z,644.20
2023-05-07T00:24:02.334Z,674.47
2023-05-07T00:26:30.649Z,647.75
2023-05-07T00:28:58.992Z,650.67
2023-05-07T00:31:27.576Z,635.63
2023-05-07T00:33:56.070Z,646.40
2023-05-07T00:36:24.470Z,633.28
2023-05-07T00:38:55.700Z,687.08
2023-05-07T00:41:24.042Z,643.33
2023-05-07T00:43:52.967Z,629.15
2023-05-07T00:46:23.387Z,648.05
2023-05-07T00:48:52.763Z,648.88
2023-05-07T00:51:21.231Z,689.88
2023-05-07T00:53:49.802Z,655.10
2023-05-07T00:56:19.720Z,682.78
2023-05-07T00:58:48.138Z,632.10
2023-05-07T01:01:17.595Z,673.08
2023-05-07T01:03:46.374Z,645.83
2023-05-07T01:06:17.767Z,636.17
2023-05-07T01:08:47.816Z,649.63
2023-05-07T01:11:17.754Z,637.00
2023-05-07T01:13:46.411Z,650.17
2023-05-07T01:16:14.793Z,658.42
2023-05-07T01:18:43.173Z,634.03
2023-05-07T01:21:13.945Z,644.30
2023-05-07T01:23:44.312Z,680.53
2023-05-07T01:26:12.924Z,648.80
2023-05-07T01:28:41.466Z,630.08
2023-05-07T01:31:11.064Z,625.97
2023-05-07T01:33:41.259Z,644.58
2023-05-07T01:36:11.212Z,680.95
2023-05-07T01:38:40.329Z,642.60
2023-05-07T01:41:10.216Z,663.72
2023-05-07T01:43:38.833Z,637.50
2023-05-07T01:46:07.763Z,646.25
2023-05-07T01:48:36.674Z,666.72
2023-05-07T01:51:05.423Z,638.75
2023-05-07T01:53:38.546Z,636.63
2023-05-07T01:56:08.913Z,686.88
2023-05-07T01:58:37.267Z,637.47
2023-05-07T02:01:05.669Z,630.13
2023-05-07T02:03:34.102Z,669.75
2023-05-07T02:06:02.586Z,649.25
2023-05-07T02:08:31.988Z,652.53
2023-05-07T02:11:00.308Z,632.30
2023-05-07T02:13:35.314Z,680.60
2023-05-07T02:16:03.789Z,657.33
2023-05-07T02:18:32.803Z,671.55
2023-05-07T02:21:01.262Z,651.50
2023-05-07T02:23:29.605Z,670.22
2023-05-07T02:25:57.963Z,675.67
2023-05-07T02:28:26.373Z,661.63
2023-05-07T02:30:56.125Z,690.30
2023-05-07T02:33:24.490Z,663.88
2023-05-07T02:35:52.953Z,665.25
2023-05-07T02:38:21.402Z,652.75
2023-05-07T02:40:49.755Z,667.38
2023-05-07T02:43:18.291Z,665.17
2023-05-07T02:45:46.712Z,648.15
2023-05-07T02:48:16.478Z,673.25
2023-05-07T02:50:44.786Z,647.28
2023-05-07T02:53:13.146Z,666.85
2023-05-07T02:55:41.454Z,645.45
2023-05-07T02:58:09.756Z,643.20
2023-05-07T03:00:38.293Z,637.92
2023-05-07T03:03:06.725Z,650.40
2023-05-07T03:05:39.430Z,651.47
2023-05-07T03:08:07.771Z,645.88
2023-05-07T03:10:36.162Z,637.25
2023-05-07T03:13:04.937Z,659.78
2023-05-07T03:15:33.494Z,649.55
2023-05-07T03:18:02.091Z,657.92
2023-05-07T03:20:31.082Z,642.17
2023-05-07T03:23:00.943Z,655.67
2023-05-07T03:25:30.957Z,636.28
2023-05-07T03:27:59.315Z,642.10
2023-05-07T03:30:27.661Z,677.03
2023-05-07T03:32:56.028Z,636.85
2023-05-07T03:35:24.420Z,676.72
2023-05-07T03:37:52.753Z,677.42
2023-05-07T03:40:22.454Z,674.55
2023-05-07T03:42:50.867Z,638.42
2023-05-07T03:45:19.274Z,634.40
2023-05-07T03:47:47.635Z,640.10
2023-05-07T03:50:16.120Z,638.58
2023-05-07T03:52:44.491Z,645.33
2023-05-07T03:55:12.854Z,627.35
2023-05-07T03:57:42.938Z,634.70
2023-05-07T04:00:12.738Z,637.95
2023-05-07T04:02:41.424Z,656.92
2023-05-07T04:05:10.626Z,629.80
2023-05-07T04:07:38.972Z,654.10
2023-05-07T04:10:08.295Z,650.50
2023-05-07T04:12:36.851Z,639.92
2023-05-07T04:15:07.346Z,636.65
2023-05-07T04:17:35.733Z,644.85
2023-05-07T04:20:05.011Z,649.63
2023-05-07T04:22:33.375Z,652.65
2023-05-07T04:25:03.044Z,652.75
2023-05-07T04:27:31.493Z,682.38
2023-05-07T04:30:01.670Z,680.22
2023-05-07T04:32:31.453Z,690.55
2023-05-07T04:34:59.895Z,691.10
2023-05-07T04:37:29.452Z,697.03
2023-05-07T04:39:57.803Z,761.70
2023-05-07T04:42:26.113Z,721.30
2023-05-07T04:44:55.785Z,684.75
2023-05-07T04:47:24.137Z,694.78
2023-05-07T04:49:53.923Z,692.90
2023-05-07T04:52:22.303Z,701.92
2023-05-07T04:54:50.680Z,710.47
2023-05-07T04:57:18.990Z,698.70
2023-05-07T04:59:47.360Z,703.58
2023-05-07T05:02:16.010Z,736.47
2023-05-07T05:04:44.380Z,726.78
2023-05-07T05:07:14.334Z,704.28
2023-05-07T05:09:42.653Z,688.53
2023-05-07T05:12:11.182Z,697.95
2023-05-07T05:14:39.639Z,699.42
2023-05-07T05:17:07.957Z,695.47
2023-05-07T05:19:36.453Z,713.08
2023-05-07T05:22:04.952Z,697.55
2023-05-07T05:24:35.473Z,757.55
2023-05-07T05:27:03.983Z,756.42
2023-05-07T05:29:32.762Z,762.65
2023-05-07T05:32:01.322Z,684.60
2023-05-07T05:38:17.080Z,647.33
2023-05-07T05:40:49.164Z,626.08
2023-05-07T05:43:17.658Z,614.70
2023-05-07T05:45:46.351Z,593.83
2023-05-07T05:48:14.856Z,596.13
2023-05-07T05:50:44.653Z,595.78
2023-05-07T05:53:13.013Z,576.50
2023-05-07T05:55:42.073Z,598.40
2023-05-07T05:58:11.902Z,589.95
2023-05-07T06:00:40.601Z,592.88
2023-05-07T06:03:14.512Z,593.22
2023-05-07T06:08:11.397Z,596.22
2023-05-07T06:10:41.840Z,614.03
2023-05-07T06:13:12.206Z,596.45
2023-05-07T06:15:40.713Z,601.53
2023-05-07T06:18:09.118Z,617.72
2023-05-07T06:20:37.768Z,634.35
2023-05-07T06:23:06.083Z,623.40
2023-05-07T06:25:34.434Z,643.22
2023-05-07T06:28:02.820Z,665.03
2023-05-07T06:30:55.403Z,683.35
2023-05-07T06:33:23.763Z,690.67
2023-05-07T06:35:52.112Z,720.35
2023-05-07T06:38:20.613Z,744.83
2023-05-07T06:40:51.507Z,789.53
2023-05-07T06:43:20.111Z,815.10
2023-05-07T06:45:49.831Z,777.60
2023-05-07T06:48:18.291Z,807.10
2023-05-07T06:50:46.732Z,808.80
2023-05-07T06:53:15.091Z,821.55
2023-05-07T06:55:43.649Z,826.03
2023-05-07T06:58:11.998Z,787.10
2023-05-07T07:00:41.748Z,783.90
2023-05-07T07:03:11.914Z,797.85
2023-05-07T07:05:40.338Z,796.35
2023-05-07T07:08:08.713Z,810.28
2023-05-07T07:10:37.163Z,784.40
2023-05-07T07:13:05.686Z,781.05
2023-05-07T07:15:34.265Z,751.47
2023-05-07T07:18:02.691Z,771.28
2023-05-07T07:20:32.610Z,821.92
2023-05-07T07:23:01.417Z,771.60
2023-05-07T07:25:29.966Z,795.17
2023-05-07T07:27:58.437Z,810.63
2023-05-07T07:47:56.822Z,815.15
2023-05-07T07:50:36.128Z,757.10
2023-05-07T07:53:11.711Z,785.42
2023-05-07T07:55:41.536Z,784.63
2023-05-07T07:58:10.059Z,809.10
2023-05-07T08:00:38.509Z,772.85
2023-05-07T08:03:08.738Z,769.63
2023-05-07T08:05:37.547Z,757.60
2023-05-07T08:08:06.818Z,761.40
2023-05-07T08:10:39.165Z,756.60
2023-05-07T08:13:08.205Z,752.60
2023-05-07T08:15:36.915Z,760.25
2023-05-07T08:18:08.011Z,771.75
2023-05-07T08:20:40.370Z,760.35
2023-05-07T08:23:09.106Z,746.20
2023-05-07T08:25:38.453Z,760.47
2023-05-07T08:28:09.661Z,738.42
2023-05-07T08:30:38.466Z,756.85
2023-05-07T08:33:09.029Z,814.42
2023-05-07T08:35:37.487Z,782.40
2023-05-07T08:38:06.031Z,769.42
2023-05-07T08:40:38.929Z,789.42
2023-05-07T08:43:08.728Z,785.38
2023-05-07T08:45:37.844Z,825.67
2023-05-07T08:48:10.839Z,813.90
2023-05-07T08:50:39.650Z,835.05
2023-05-07T08:53:08.362Z,835.42
2023-05-07T08:55:36.832Z,805.53
2023-05-07T08:58:06.731Z,821.25
2023-05-07T09:00:35.244Z,825.85
2023-05-07T09:03:03.881Z,821.50
2023-05-07T09:05:33.656Z,814.25
2023-05-07T09:08:02.151Z,885.17
2023-05-07T09:10:31.450Z,811.90
2023-05-07T09:13:00.051Z,854.63
2023-05-07T09:15:30.078Z,836.67
2023-05-07T09:18:03.050Z,827.22
2023-05-07T09:20:34.304Z,847.83
2023-05-07T09:23:02.721Z,808.65
2023-05-07T09:25:31.833Z,800.45
2023-05-07T09:28:00.909Z,839.17
2023-05-07T09:30:31.327Z,832.30
2023-05-07T09:33:01.014Z,837.13
2023-05-07T09:35:30.016Z,837.53
2023-05-07T09:38:03.667Z,835.97
2023-05-07T09:40:33.550Z,828.58
2023-05-07T09:43:12.785Z,841.03
2023-05-07T09:45:41.422Z,872.05
2023-05-07T09:48:10.855Z,906.03
2023-05-07T09:50:41.796Z,839.53
2023-05-07T09:53:12.797Z,840.20
2023-05-07T09:55:41.184Z,842.10
2023-05-07T09:58:09.862Z,842.35
2023-05-07T10:00:38.646Z,820.60
2023-05-07T10:03:07.442Z,824.95
2023-05-07T10:05:36.336Z,823.50
2023-05-07T10:08:05.179Z,831.85
2023-05-07T10:10:35.961Z,834.55
2023-05-07T10:13:06.891Z,820.28
2023-05-07T10:15:35.630Z,819.75
2023-05-07T10:18:05.200Z,803.25
2023-05-07T10:20:34.278Z,804.78
2023-05-07T10:23:04.533Z,858.70
2023-05-07T10:25:34.978Z,808.75
2023-05-07T10:28:07.035Z,803.22
2023-05-07T10:30:45.920Z,816.95
2023-05-07T10:33:17.612Z,784.63
2023-05-07T10:35:47.406Z,780.63
2023-05-07T10:38:15.920Z,776.08
2023-05-07T10:40:47.888Z,765.20
2023-05-07T10:43:16.750Z,756.35
2023-05-07T10:45:45.250Z,739.55
2023-05-07T10:50:47.509Z,712.15
2023-05-07T10:53:28.385Z,738.53
2023-05-07T10:56:29.901Z,710.70
2023-05-07T10:59:13.723Z,711.00
2023-05-07T11:01:56.967Z,645.72
2023-05-07T11:04:28.978Z,733.10
2023-05-07T11:07:28.813Z,655.60
2023-05-07T11:09:59.544Z,645.58
2023-05-07T11:12:51.935Z,655.13
2023-05-07T11:15:40.293Z,659.83
2023-05-07T11:18:08.769Z,743.17
2023-05-07T11:21:00.034Z,742.15
2023-05-07T11:24:00.753Z,677.13
2023-05-07T11:26:31.540Z,715.15
2023-05-07T11:29:02.221Z,698.20
2023-05-07T11:47:45.645Z,764.65
2023-05-07T11:50:14.342Z,781.95
2023-05-07T11:52:42.720Z,771.25
2023-05-07T11:55:11.959Z,837.38
2023-05-07T11:57:40.908Z,799.55
2023-05-07T12:00:10.659Z,857.13
2023-05-07T12:02:39.766Z,846.22
2023-05-07T12:05:10.910Z,834.10
2023-05-07T12:07:39.541Z,861.00
2023-05-07T12:10:08.574Z,858.65
2023-05-07T12:12:42.734Z,794.50
2023-05-07T12:17:40.667Z,856.72
2023-05-07T12:20:11.656Z,772.60
2023-05-07T12:22:40.209Z,729.20
2023-05-07T12:25:09.780Z,721.22
2023-05-07T12:27:40.098Z,717.55
2023-05-07T12:30:11.628Z,701.25
2023-05-07T12:32:40.068Z,743.78
2023-05-07T12:35:10.828Z,705.30
2023-05-07T12:37:39.374Z,809.78
2023-05-07T12:40:09.757Z,729.38
2023-05-07T12:42:39.495Z,758.53
2023-05-07T12:45:12.190Z,763.60
2023-05-07T12:47:40.820Z,757.83
2023-05-07T12:50:11.033Z,751.97
2023-05-07T12:52:39.466Z,756.50
2023-05-07T13:05:49.686Z,744.70
2023-05-07T13:08:27.092Z,791.90
2023-05-07T13:10:56.095Z,727.10
2023-05-07T13:13:25.000Z,726.05
2023-05-07T13:15:53.673Z,689.90
2023-05-07T13:18:22.401Z,762.13
2023-05-07T13:20:52.598Z,702.42
2023-05-07T13:23:21.230Z,743.70
2023-05-07T13:25:50.024Z,874.97
2023-05-07T13:28:18.559Z,730.63
2023-05-07T13:30:47.168Z,698.00
2023-05-07T13:33:16.498Z,634.78
2023-05-07T13:35:44.957Z,615.00
2023-05-07T13:38:17.278Z,527.30
2023-05-07T13:40:45.894Z,564.47
2023-05-07T13:43:14.429Z,393.63
2023-05-07T13:45:43.435Z,310.05
2023-05-07T13:48:11.940Z,295.25
2023-05-07T13:50:40.616Z,346.55
2023-05-07T13:53:09.480Z,388.33
2023-05-07T13:55:39.514Z,417.02
2023-05-07T13:58:08.145Z,408.38
2023-05-07T14:00:36.897Z,470.42
2023-05-07T14:03:06.804Z,560.97
2023-05-07T14:05:47.684Z,514.53
2023-05-07T14:08:20.802Z,490.27
2023-05-07T14:11:06.988Z,636.08
2023-05-07T14:13:35.831Z,606.10
2023-05-07T14:16:05.937Z,620.30
2023-05-07T14:18:35.434Z,621.10
2023-05-07T14:21:04.091Z,627.92
2023-05-07T14:23:32.800Z,740.08
2023-05-07T14:26:12.433Z,660.10
2023-05-07T14:28:43.804Z,634.45
2023-05-07T14:31:12.586Z,685.22
2023-05-07T14:33:44.118Z,642.70
2023-05-07T14:36:12.785Z,621.53
2023-05-07T14:38:41.509Z,723.80
2023-05-07T14:41:11.444Z,681.13
2023-05-07T14:43:40.337Z,756.33
2023-05-07T14:46:09.008Z,677.28
2023-05-07T14:48:37.427Z,666.13
2023-05-07T14:51:09.066Z,687.38
2023-05-07T14:53:37.775Z,668.80
2023-05-07T14:56:06.851Z,708.15
2023-05-07T14:58:37.137Z,708.97
2023-05-07T15:01:06.462Z,700.17
2023-05-07T15:03:35.486Z,685.63
2023-05-07T15:06:04.447Z,731.35
2023-05-07T15:08:32.895Z,730.15
2023-05-07T15:11:01.543Z,733.17
2023-05-07T15:13:34.080Z,745.88
2023-05-07T15:16:04.790Z,750.28
2023-05-07T15:18:39.092Z,819.42
2023-05-07T15:23:36.003Z,723.30
2023-05-07T15:26:13.848Z,728.03
2023-05-07T15:28:59.779Z,750.83
2023-05-07T15:31:38.262Z,743.55
2023-05-07T16:13:39.752Z,752.58
2023-05-07T16:16:08.285Z,706.70
2023-05-07T16:18:39.177Z,694.40
2023-05-07T16:21:09.246Z,771.53
2023-05-07T16:23:45.144Z,727.75
2023-05-07T16:26:16.110Z,707.10
2023-05-07T16:28:58.820Z,751.92
2023-05-07T16:31:27.599Z,685.00
2023-05-07T16:36:54.433Z,716.28
2023-05-07T16:39:54.281Z,704.42
2023-05-07T16:42:23.001Z,827.70
2023-05-07T16:44:54.673Z,720.30
2023-05-07T16:47:23.314Z,720.40
2023-05-07T16:49:52.138Z,725.03
2023-05-07T16:52:21.320Z,716.80
2023-05-07T16:54:49.837Z,719.00
2023-05-07T16:57:18.484Z,699.67
2023-05-07T16:59:46.926Z,724.67
2023-05-07T17:02:16.734Z,745.67
2023-05-07T17:04:45.202Z,714.15
2023-05-07T17:07:14.955Z,770.47
2023-05-07T17:09:43.685Z,703.90
2023-05-07T17:12:12.062Z,705.25
2023-05-07T17:14:41.677Z,716.33
2023-05-07T17:17:10.273Z,713.53
2023-05-07T17:19:44.825Z,711.13
2023-05-07T17:22:16.117Z,783.97
2023-05-07T17:24:47.783Z,721.83
2023-05-07T17:27:20.918Z,708.20
2023-05-07T17:29:52.812Z,696.23
2023-05-07T17:32:24.483Z,708.28
2023-05-07T17:34:58.361Z,722.15
2023-05-07T17:37:31.171Z,709.25
2023-05-07T17:40:03.433Z,708.95
2023-05-07T17:42:35.420Z,715.60
2023-05-07T17:45:07.170Z,741.47
2023-05-07T17:47:39.391Z,725.33
2023-05-07T17:50:14.489Z,724.53
2023-05-07T17:52:46.302Z,757.88
2023-05-07T17:55:17.233Z,713.83
2023-05-07T17:57:45.843Z,715.25
2023-05-07T18:00:15.422Z,737.35
2023-05-07T18:02:44.086Z,705.80
2023-05-07T18:05:14.000Z,719.25
2023-05-07T18:07:42.622Z,741.58
2023-05-07T18:10:11.982Z,739.70
2023-05-07T18:12:40.749Z,720.20
2023-05-07T18:15:10.616Z,684.03
2023-05-07T18:17:39.162Z,728.70
2023-05-07T18:20:11.465Z,687.25
2023-05-07T18:22:41.955Z,722.88
2023-05-07T18:25:10.881Z,770.65
2023-05-07T18:27:39.322Z,726.30
2023-05-07T18:30:09.031Z,713.13
2023-05-07T18:32:37.562Z,723.30
2023-05-07T18:35:06.805Z,725.38
2023-05-07T18:37:35.511Z,719.85
2023-05-07T18:40:07.533Z,738.20
2023-05-07T18:45:54.663Z,682.83
2023-05-07T18:48:23.301Z,731.60
2023-05-07T18:50:52.554Z,693.78
2023-05-07T18:53:30.332Z,694.75
2023-05-07T18:56:25.763Z,758.08
2023-05-07T18:58:54.411Z,709.17
2023-05-07T19:01:34.055Z,690.20
2023-05-07T19:04:10.999Z,728.33
2023-05-07T19:06:45.532Z,737.00
2023-05-07T19:09:14.607Z,707.80
2023-05-07T19:11:44.437Z,724.83
2023-05-07T19:14:12.843Z,748.35
2023-05-07T19:16:41.408Z,732.05
2023-05-07T19:19:10.285Z,751.55
2023-05-07T19:21:38.697Z,695.03
2023-05-07T19:24:07.979Z,761.35
2023-05-07T19:26:37.201Z,736.50
2023-05-07T19:29:17.500Z,757.00
2023-05-07T19:31:46.808Z,766.17
2023-05-07T19:34:15.342Z,736.70
2023-05-07T19:36:44.096Z,755.78
2023-05-07T19:39:12.648Z,805.67
2023-05-07T19:41:41.928Z,772.22
2023-05-07T19:44:13.987Z,760.25
2023-05-07T19:46:45.733Z,747.05
2023-05-07T19:49:14.188Z,735.90
2023-05-07T19:51:42.645Z,764.63
2023-05-07T19:54:11.001Z,737.00
2023-05-07T19:56:39.981Z,795.67
2023-05-07T19:59:08.468Z,798.03
2023-05-07T20:01:39.049Z,796.22
2023-05-07T20:04:07.771Z,754.35
2023-05-07T20:06:36.388Z,790.65
2023-05-07T20:09:05.018Z,793.78
2023-05-07T20:11:33.417Z,728.65
2023-05-07T20:14:02.234Z,771.17
2023-05-07T20:16:30.705Z,782.30
2023-05-07T20:19:00.603Z,790.83
2023-05-07T20:21:29.182Z,798.20
2023-05-07T20:23:58.179Z,766.80
2023-05-07T20:26:27.111Z,720.40
2023-05-07T20:28:55.711Z,783.53
2023-05-07T20:31:24.222Z,785.67
2023-05-07T20:33:52.693Z,773.30
2023-05-07T20:36:24.977Z,744.03
2023-05-07T20:38:53.457Z,751.47
2023-05-07T20:41:25.050Z,788.63
2023-05-07T20:43:53.468Z,772.67
2023-05-07T20:46:23.163Z,802.53
2023-05-07T20:48:52.099Z,737.80
2023-05-07T20:53:50.216Z,730.88
2023-05-07T20:56:18.597Z,688.28
2023-05-07T20:58:46.998Z,778.85
2023-05-07T21:01:15.603Z,691.05
2023-05-07T21:03:44.141Z,786.00
2023-05-07T21:06:12.548Z,752.00
2023-05-07T21:08:42.290Z,727.22
2023-05-07T21:11:12.959Z,716.13
2023-05-07T21:13:41.414Z,789.65
2023-05-07T21:16:10.663Z,716.97
2023-05-07T21:18:39.122Z,789.88
2023-05-07T21:21:09.479Z,740.53
2023-05-07T21:23:37.990Z,689.25
2023-05-07T21:26:07.747Z,726.58
2023-05-07T21:28:36.106Z,793.25
2023-05-07T21:31:04.542Z,756.72
2023-05-07T21:33:32.990Z,731.67
2023-05-07T21:36:01.418Z,789.92
2023-05-07T21:38:29.790Z,775.03
2023-05-07T21:40:59.377Z,741.70
2023-05-07T21:43:29.107Z,711.70
2023-05-07T21:45:58.220Z,803.95
2023-05-07T21:48:27.893Z,737.78
2023-05-07T21:51:03.076Z,737.83
2023-05-07T21:53:32.116Z,735.42
2023-05-07T21:56:02.397Z,702.42
2023-05-07T21:58:32.408Z,787.08
2023-05-07T22:01:02.577Z,719.70
2023-05-07T22:03:31.239Z,760.95
2023-05-07T22:05:59.676Z,809.67
2023-05-07T22:08:28.045Z,812.33
2023-05-07T22:10:56.445Z,758.40
2023-05-07T22:13:24.894Z,698.53
2023-05-07T22:15:58.003Z,798.25
2023-05-07T22:18:27.061Z,808.20
2023-05-07T22:20:55.563Z,759.75
2023-05-07T22:23:23.924Z,811.75
2023-05-07T22:25:52.348Z,752.13
2023-05-07T22:28:21.373Z,725.78
2023-05-07T22:30:49.829Z,737.55
2023-05-07T22:33:19.606Z,739.67
2023-05-07T22:35:48.161Z,782.95
2023-05-07T22:38:16.590Z,803.70
2023-05-07T22:40:44.979Z,805.58
2023-05-07T22:43:13.339Z,767.25
2023-05-07T22:45:41.742Z,763.55
2023-05-07T22:48:10.405Z,743.05
2023-05-07T22:50:40.625Z,738.03
2023-05-07T22:53:09.040Z,736.53
2023-05-07T22:55:37.371Z,712.40
2023-05-07T22:58:05.705Z,802.72
2023-05-07T23:00:34.437Z,731.00
2023-05-07T23:03:03.002Z,798.40
2023-05-07T23:05:31.396Z,830.03
2023-05-07T23:08:01.219Z,731.08
2023-05-07T23:10:29.685Z,787.05
2023-05-07T23:12:58.073Z,770.72
2023-05-07T23:15:26.682Z,801.70
2023-05-07T23:17:55.061Z,814.38
2023-05-07T23:20:23.446Z,745.90
2023-05-07T23:22:51.971Z,827.85
2023-05-07T23:25:21.940Z,752.17
2023-05-07T23:27:50.497Z,828.58
2023-05-07T23:30:18.978Z,776.53
2023-05-07T23:32:47.490Z,757.42
2023-05-07T23:35:16.028Z,851.40
2023-05-07T23:37:44.552Z,826.47
2023-05-07T23:40:13.405Z,822.30
2023-05-07T23:42:43.449Z,829.92
2023-05-07T23:45:12.192Z,840.67
2023-05-07T23:47:40.620Z,836.97
2023-05-07T23:50:09.693Z,844.25
2023-05-07T23:52:38.156Z,826.58
2023-05-07T23:55:07.308Z,839.42
2023-05-07T23:57:35.721Z,822.58
